Time;durP1;ratioP1;P1;durP2;ratioP2;P2;SDS_P1;SDS_P2;PMS_P1;PMS_P2;Temp;Humidity;BMP_temperature;BMP_pressure;BME280_temperature;BME280_humidity;BME280_pressure;Samples;Min_cycle;Max_cycle;Signal;HPM_P1;HPM_P2
2021/12/03 00:00:53;;;;;;;13.52;11.88;;;;;;;6.35;61.13;93814.03;5095678;28;20204;-69
2021/12/03 00:03:20;;;;;;;14.38;12.98;;;;;;;6.35;60.77;93829.66;5096292;28;20204;-69
2021/12/03 00:05:48;;;;;;;13.77;11.70;;;;;;;6.40;60.76;93843.88;5096842;28;20196;-69
2021/12/03 00:08:15;;;;;;;11.05;9.68;;;;;;;6.44;60.97;93833.81;5096693;28;20195;-68
2021/12/03 00:10:47;;;;;;;11.52;10.05;;;;;;;6.46;60.73;93830.69;5078989;28;20204;-68
2021/12/03 00:13:14;;;;;;;10.93;9.43;;;;;;;6.49;61.08;93819.03;5095694;28;20214;-68
2021/12/03 00:15:41;;;;;;;10.45;8.98;;;;;;;6.52;61.06;93829.28;5096097;28;20546;-68
2021/12/03 00:18:08;;;;;;;11.23;9.02;;;;;;;6.51;61.27;93812.06;5096552;28;20184;-69
2021/12/03 00:20:36;;;;;;;11.70;10.38;;;;;;;6.55;61.36;93823.09;5096440;28;20268;-69
2021/12/03 00:23:04;;;;;;;13.20;10.50;;;;;;;6.62;60.94;93817.78;5095514;28;20196;-69
2021/12/03 00:25:32;;;;;;;14.55;11.52;;;;;;;6.65;60.44;93833.50;5078500;28;20200;-70
2021/12/03 00:28:00;;;;;;;14.60;12.85;;;;;;;6.67;60.79;93822.97;5096391;28;20188;-69
2021/12/03 00:30:27;;;;;;;13.20;11.77;;;;;;;6.71;60.50;93829.31;5096407;28;20181;-69
2021/12/03 00:32:54;;;;;;;13.25;11.90;;;;;;;6.73;60.67;93829.75;5096126;28;20198;-69
2021/12/03 00:35:21;;;;;;;13.65;12.35;;;;;;;6.72;60.68;93828.19;5095757;28;20572;-69
2021/12/03 00:37:49;;;;;;;14.23;12.82;;;;;;;6.72;61.10;93841.88;5096293;28;20188;-69
2021/12/03 00:40:21;;;;;;;14.52;11.57;;;;;;;6.70;60.94;93835.94;5096154;28;20200;-69
2021/12/03 00:42:48;;;;;;;13.65;12.25;;;;;;;6.66;61.39;93859.75;5077969;28;20555;-69
2021/12/03 00:45:16;;;;;;;9.95;8.95;;;;;;;6.65;60.85;93868.31;5077914;28;20242;-69
2021/12/03 00:47:43;;;;;;;9.25;8.35;;;;;;;6.71;60.85;93844.97;5096137;28;20292;-69
2021/12/03 00:50:12;;;;;;;7.20;6.50;;;;;;;6.73;61.48;93840.72;5095686;28;20188;-69
2021/12/03 00:52:39;;;;;;;5.70;5.10;;;;;;;6.78;61.20;93842.38;5077966;28;20211;-69
2021/12/03 00:55:07;;;;;;;6.47;5.30;;;;;;;6.87;60.96;93842.97;5095375;28;20208;-69
2021/12/03 00:57:34;;;;;;;6.68;5.90;;;;;;;6.90;61.02;93836.78;5078096;28;20628;-69
2021/12/03 01:00:01;;;;;;;6.80;6.03;;;;;;;6.94;61.04;93854.09;5095725;28;20195;-69
2021/12/03 01:02:29;;;;;;;6.63;5.65;;;;;;;7.04;60.88;93836.25;5077904;28;20189;-69
2021/12/03 01:04:56;;;;;;;5.60;4.88;;;;;;;7.09;60.76;93827.75;5095581;28;20184;-69
2021/12/03 01:07:23;;;;;;;8.45;5.50;;;;;;;7.23;60.64;93805.31;5095355;28;20195;-69
2021/12/03 01:09:50;;;;;;;6.55;5.75;;;;;;;7.33;60.04;93826.66;5095633;28;20200;-69
2021/12/03 01:12:17;;;;;;;7.28;6.05;;;;;;;7.40;59.77;93842.47;5077328;28;20253;-69
2021/12/03 01:14:44;;;;;;;6.70;6.00;;;;;;;7.48;59.64;93814.81;5077814;28;20200;-69
2021/12/03 01:17:12;;;;;;;6.53;5.10;;;;;;;7.56;59.23;93828.66;5095720;28;20251;-69
2021/12/03 01:19:40;;;;;;;5.97;4.53;;;;;;;7.61;59.10;93812.69;5095207;28;20176;-68
2021/12/03 01:22:06;;;;;;;5.50;4.47;;;;;;;7.65;59.17;93827.25;5077677;28;20200;-68
2021/12/03 01:24:33;;;;;;;5.55;4.50;;;;;;;7.75;59.46;93814.91;5077611;28;20211;-69
2021/12/03 01:27:00;;;;;;;4.40;3.72;;;;;;;7.74;59.42;93790.56;5095316;28;20192;-69
2021/12/03 01:29:27;;;;;;;2.00;1.80;;;;;;;8.01;59.69;93800.44;5077779;28;20660;-68
2021/12/03 01:31:56;;;;;;;2.08;1.80;;;;;;;8.35;58.91;93831.59;5095352;28;20181;-68
2021/12/03 01:34:24;;;;;;;1.55;1.45;;;;;;;8.70;57.44;93803.06;5077600;28;20207;-68
2021/12/03 01:36:52;;;;;;;2.72;1.63;;;;;;;9.07;56.61;93780.38;5077104;28;20213;-68
2021/12/03 01:39:19;;;;;;;1.52;1.20;;;;;;;9.29;56.36;93806.16;5077525;28;20196;-68
2021/12/03 01:41:46;;;;;;;1.30;1.20;;;;;;;9.48;55.61;93797.75;5094893;28;20632;-68
2021/12/03 01:44:13;;;;;;;1.45;1.35;;;;;;;9.64;55.15;93783.75;5077401;28;20691;-68
2021/12/03 01:46:39;;;;;;;2.65;1.55;;;;;;;9.60;55.64;93794.72;5095175;28;20184;-68
2021/12/03 01:49:09;;;;;;;1.50;1.40;;;;;;;9.55;55.05;93784.06;5095151;28;20187;-68
2021/12/03 01:51:36;;;;;;;2.78;1.40;;;;;;;9.57;55.13;93797.44;5077743;28;20204;-69
2021/12/03 01:54:04;;;;;;;1.83;1.23;;;;;;;9.64;55.45;93805.78;5095142;28;20181;-68
2021/12/03 01:56:31;;;;;;;1.52;1.40;;;;;;;9.77;54.55;93784.28;5094815;28;20204;-69
2021/12/03 01:58:58;;;;;;;1.60;1.50;;;;;;;9.71;55.25;93797.59;5077373;28;20184;-69
2021/12/03 02:01:28;;;;;;;3.30;3.05;;;;;;;9.52;54.83;93789.53;5095028;28;20224;-69
2021/12/03 02:03:58;;;;;;;3.42;3.13;;;;;;;9.20;55.74;93778.97;5077245;28;20543;-69
2021/12/03 02:06:26;;;;;;;5.32;4.05;;;;;;;8.93;56.03;93753.47;5094682;28;20668;-68
2021/12/03 02:08:54;;;;;;;4.47;3.20;;;;;;;8.82;56.37;93793.78;5094564;28;20198;-68
2021/12/03 02:11:22;;;;;;;1.35;1.20;;;;;;;9.23;55.64;93802.19;5094921;28;20196;-68
2021/12/03 02:13:49;;;;;;;3.35;1.60;;;;;;;9.64;55.03;93789.25;5094796;28;20536;-68
2021/12/03 02:16:17;;;;;;;2.30;1.33;;;;;;;9.95;54.22;93787.19;5077329;28;20285;-68
2021/12/03 02:18:44;;;;;;;2.15;1.35;;;;;;;10.09;53.16;93766.09;5077114;28;20204;-69
2021/12/03 02:21:13;;;;;;;1.98;1.30;;;;;;;10.16;52.90;93748.78;5077181;28;20204;-69
2021/12/03 02:23:41;;;;;;;1.90;1.30;;;;;;;10.16;53.32;93748.78;5095505;28;20269;-69
2021/12/03 02:26:08;;;;;;;1.85;1.48;;;;;;;10.08;53.29;93764.47;5081176;28;20192;-68
2021/12/03 02:28:38;;;;;;;1.90;1.80;;;;;;;9.98;53.49;93743.13;5080890;28;20193;-68
2021/12/03 02:31:05;;;;;;;2.63;1.70;;;;;;;9.91;53.55;93756.06;5080379;28;20196;-69
2021/12/03 02:33:32;;;;;;;2.17;1.52;;;;;;;9.99;52.98;93766.78;5098252;28;20189;-68
2021/12/03 02:35:59;;;;;;;2.03;1.50;;;;;;;10.07;52.93;93760.16;5080986;28;20301;-69
2021/12/03 02:38:27;;;;;;;2.03;1.20;;;;;;;10.14;53.36;93756.66;5098432;28;20250;-68
2021/12/03 02:40:55;;;;;;;1.13;1.13;;;;;;;10.16;53.50;93754.31;5098320;28;20184;-68
2021/12/03 02:43:22;;;;;;;1.15;1.05;;;;;;;10.21;53.45;93747.66;5081021;28;20232;-68
2021/12/03 02:45:51;;;;;;;1.60;1.50;;;;;;;10.18;53.63;93775.97;5080762;28;20201;-69
2021/12/03 02:48:18;;;;;;;2.38;1.40;;;;;;;10.22;53.40;93768.53;5080459;28;20281;-69
2021/12/03 02:50:45;;;;;;;1.30;1.20;;;;;;;10.26;53.38;93761.91;5098053;28;20206;-67
2021/12/03 02:53:12;;;;;;;2.25;1.20;;;;;;;10.25;53.45;93765.00;5080537;28;20196;-68
2021/12/03 02:55:41;;;;;;;2.97;1.48;;;;;;;10.20;53.91;93757.09;5097688;28;20203;-68
2021/12/03 02:58:08;;;;;;;3.25;2.78;;;;;;;10.08;54.27;93766.44;5080451;28;20195;-68
2021/12/03 03:00:35;;;;;;;3.60;3.10;;;;;;;9.95;54.30;93765.16;5097768;28;20601;-68
2021/12/03 03:03:02;;;;;;;4.35;3.75;;;;;;;9.73;54.08;93784.25;5080027;28;20192;-68
2021/12/03 03:05:29;;;;;;;1.90;1.65;;;;;;;9.59;54.89;93775.84;5098124;28;20191;-68
2021/12/03 03:07:56;;;;;;;3.67;3.38;;;;;;;9.60;55.41;93745.19;5097881;28;20632;-68
2021/12/03 03:10:30;;;;;;;3.45;3.22;;;;;;;9.47;54.92;93790.66;5079751;28;20188;-68
2021/12/03 03:12:59;;;;;;;4.00;3.15;;;;;;;9.44;55.34;93804.38;5080390;28;20200;-68
2021/12/03 03:15:27;;;;;;;3.13;2.83;;;;;;;9.26;55.47;93798.66;5080447;28;20222;-68
2021/12/03 03:17:54;;;;;;;3.70;3.25;;;;;;;9.14;55.36;93792.25;5097730;28;20202;-68
2021/12/03 03:20:21;;;;;;;3.38;2.70;;;;;;;9.09;56.06;93789.03;5097783;28;20193;-69
2021/12/03 03:22:49;;;;;;;4.05;2.63;;;;;;;9.00;55.75;93778.31;5097594;28;20195;-69
2021/12/03 03:25:18;;;;;;;4.72;3.17;;;;;;;8.93;55.92;93786.47;5097949;28;20200;-69
2021/12/03 03:27:45;;;;;;;3.25;2.90;;;;;;;8.89;56.45;93775.44;5080174;28;20528;-68
2021/12/03 03:30:16;;;;;;;3.90;2.67;;;;;;;8.91;56.85;93783.31;5079779;28;20203;-68
2021/12/03 03:32:43;;;;;;;1.63;1.50;;;;;;;9.22;56.65;93757.34;5097354;28;20191;-68
2021/12/03 03:35:11;;;;;;;2.85;1.70;;;;;;;9.42;56.19;93777.25;5096625;28;20184;-68
2021/12/03 03:37:38;;;;;;;2.20;1.90;;;;;;;9.56;55.88;93812.38;5079235;28;20222;-68
2021/12/03 03:40:05;;;;;;;3.08;2.70;;;;;;;9.65;55.32;93821.13;5097235;28;20192;-68
2021/12/03 03:42:33;;;;;;;3.55;2.35;;;;;;;9.93;54.68;93756.50;5097108;28;20244;-68
2021/12/03 03:45:00;;;;;;;2.55;2.00;;;;;;;9.99;54.63;93771.50;5097090;28;20207;-68
2021/12/03 03:47:28;;;;;;;3.08;2.85;;;;;;;9.96;54.89;93799.81;5079029;28;20628;-68
2021/12/03 03:49:55;;;;;;;5.18;4.70;;;;;;;9.73;55.31;93762.22;5096762;28;20635;-68
2021/12/03 03:52:22;;;;;;;3.70;3.00;;;;;;;9.60;55.13;93786.47;5079299;28;20206;-67
2021/12/03 03:54:48;;;;;;;3.35;2.53;;;;;;;9.61;55.08;93785.28;5079111;28;20609;-68
2021/12/03 03:57:15;;;;;;;4.15;3.08;;;;;;;9.61;54.71;93779.78;5096609;28;20250;-68
2021/12/03 03:59:42;;;;;;;3.60;3.30;;;;;;;9.51;55.10;93807.19;5079263;28;20200;-67
2021/12/03 04:02:09;;;;;;;4.10;3.38;;;;;;;9.34;55.78;93781.09;5096493;28;20517;-68
2021/12/03 04:04:37;;;;;;;4.82;3.70;;;;;;;9.26;55.61;93801.41;5096785;28;20191;-68
2021/12/03 04:07:04;;;;;;;4.57;3.40;;;;;;;9.24;55.77;93790.00;5078989;28;20253;-68
2021/12/03 04:09:31;;;;;;;3.53;2.80;;;;;;;9.27;56.05;93790.06;5096693;28;20192;-68
2021/12/03 04:11:58;;;;;;;3.20;2.90;;;;;;;9.23;56.65;93802.97;5078975;28;20202;-68
2021/12/03 04:14:25;;;;;;;2.88;2.53;;;;;;;9.29;57.00;93798.69;5078989;28;20203;-68
2021/12/03 04:16:52;;;;;;;3.38;2.20;;;;;;;9.34;56.78;93784.63;5078627;28;20223;-68
2021/12/03 04:19:19;;;;;;;4.25;3.40;;;;;;;9.34;56.92;93792.88;5078901;28;20193;-67
2021/12/03 04:21:47;;;;;;;3.30;2.78;;;;;;;9.29;56.33;93803.41;5096453;28;20177;-66
2021/12/03 04:24:14;;;;;;;2.88;2.60;;;;;;;9.23;57.37;93783.72;5078850;28;20205;-68
2021/12/03 04:26:41;;;;;;;4.05;3.65;;;;;;;9.19;57.36;93801.31;5078540;28;20208;-68
2021/12/03 04:29:07;;;;;;;3.72;3.30;;;;;;;9.21;57.26;93801.75;5078140;28;20703;-68
2021/12/03 04:31:34;;;;;;;7.82;7.00;;;;;;;9.16;57.46;93798.16;5096062;28;20250;-68
2021/12/03 04:34:01;;;;;;;7.78;6.50;;;;;;;9.10;57.48;93809.88;5096022;28;20187;-68
2021/12/03 04:36:28;;;;;;;8.10;7.30;;;;;;;9.05;57.84;93810.22;5095830;28;20216;-68
2021/12/03 04:38:56;;;;;;;10.50;8.65;;;;;;;9.02;57.59;93827.47;5096168;28;20177;-69
2021/12/03 04:41:23;;;;;;;12.32;9.73;;;;;;;8.94;58.12;93821.06;5078303;28;20207;-68
2021/12/03 04:43:50;;;;;;;10.60;8.35;;;;;;;8.89;58.23;93829.63;5096037;28;20236;-69
2021/12/03 04:46:17;;;;;;;11.20;7.60;;;;;;;8.87;58.07;93808.03;5077511;28;20287;-66
2021/12/03 04:48:43;;;;;;;9.27;8.27;;;;;;;8.84;58.71;93800.50;5078026;28;20217;-70
2021/12/03 04:51:10;;;;;;;9.65;6.90;;;;;;;8.90;58.27;93814.75;5095971;28;20189;-70
2021/12/03 04:53:37;;;;;;;10.25;7.25;;;;;;;8.94;58.47;93815.56;5078164;28;20203;-70
2021/12/03 04:56:06;;;;;;;3.42;2.95;;;;;;;9.17;58.12;93842.97;5095883;28;20261;-69
2021/12/03 04:58:33;;;;;;;3.33;2.85;;;;;;;9.36;57.51;93831.03;5078165;28;20197;-69
2021/12/03 05:01:00;;;;;;;5.28;3.20;;;;;;;9.44;57.53;93821.69;5095416;28;20211;-70
2021/12/03 05:03:29;;;;;;;3.58;3.28;;;;;;;9.46;57.41;93835.06;5095791;28;20189;-70
2021/12/03 05:05:58;;;;;;;4.07;3.15;;;;;;;9.47;57.44;93845.69;5095802;28;20181;-67
2021/12/03 05:08:27;;;;;;;5.75;4.95;;;;;;;9.39;57.94;93841.28;5077897;28;20197;-71
2021/12/03 05:10:54;;;;;;;8.40;4.55;;;;;;;9.35;58.17;93816.47;5095558;28;20203;-70
2021/12/03 05:13:24;;;;;;;9.65;5.90;;;;;;;9.33;58.29;93831.75;5077760;28;20196;-70
2021/12/03 05:15:52;;;;;;;8.68;7.03;;;;;;;9.35;58.11;93832.19;5095640;28;20176;-70
2021/12/03 05:18:21;;;;;;;9.30;7.82;;;;;;;9.37;57.74;93844.41;5095232;28;20181;-71
2021/12/03 05:20:50;;;;;;;3.35;2.55;;;;;;;9.53;57.54;93826.91;5077685;28;20203;-71
2021/12/03 05:23:17;;;;;;;1.90;1.80;;;;;;;9.67;57.57;93826.25;5095000;28;20200;-71
2021/12/03 05:25:44;;;;;;;2.15;1.92;;;;;;;9.76;57.49;93840.50;5077668;28;20207;-71
2021/12/03 05:28:11;;;;;;;4.63;1.75;;;;;;;9.84;57.07;93837.47;5096148;28;20211;-70
2021/12/03 05:30:39;;;;;;;3.15;1.70;;;;;;;9.95;56.24;93837.56;5077980;28;20196;-70
2021/12/03 05:33:07;;;;;;;2.28;1.80;;;;;;;10.13;55.52;93846.78;5095641;28;20268;-71
2021/12/03 05:35:34;;;;;;;3.13;2.17;;;;;;;10.18;55.86;93844.88;5095152;28;20207;-70
2021/12/03 05:38:01;;;;;;;2.92;2.50;;;;;;;10.16;55.16;93859.00;5077325;28;20538;-71
2021/12/03 05:40:28;;;;;;;2.80;2.00;;;;;;;10.16;55.70;93869.25;5095369;28;20592;-70
2021/12/03 05:42:55;;;;;;;2.58;1.60;;;;;;;10.16;56.40;93859.00;5094928;28;20244;-70
2021/12/03 05:45:25;;;;;;;2.55;1.60;;;;;;;10.17;56.39;93865.31;5095156;28;20176;-71
2021/12/03 05:47:54;;;;;;;2.15;1.60;;;;;;;10.18;56.86;93894.47;5077842;28;20201;-71
2021/12/03 05:50:21;;;;;;;2.85;1.60;;;;;;;10.24;55.78;93868.94;5095166;28;20176;-72
2021/12/03 05:52:49;;;;;;;2.00;1.75;;;;;;;10.28;56.82;93880.81;5077442;28;20192;-70
2021/12/03 05:55:16;;;;;;;4.35;2.70;;;;;;;10.25;55.49;93870.53;5095154;28;20195;-70
2021/12/03 05:57:44;;;;;;;2.35;1.80;;;;;;;10.26;56.27;93877.63;5096084;28;20215;-70
2021/12/03 06:00:14;;;;;;;2.10;1.60;;;;;;;10.29;56.35;93862.31;5099205;28;20200;-70
2021/12/03 06:02:41;;;;;;;2.38;1.50;;;;;;;10.32;56.06;93848.56;5081429;28;20200;-70
2021/12/03 06:05:09;;;;;;;3.30;2.28;;;;;;;10.34;55.70;93854.47;5098899;28;20196;-70
2021/12/03 06:07:36;;;;;;;3.15;1.98;;;;;;;10.37;55.63;93866.72;5081635;28;20193;-70
2021/12/03 06:10:04;;;;;;;3.60;2.03;;;;;;;10.38;54.85;93862.78;5099142;28;20199;-71
2021/12/03 06:12:31;;;;;;;3.60;1.80;;;;;;;10.42;55.05;93852.59;5099214;28;20188;-70
2021/12/03 06:14:58;;;;;;;3.63;1.92;;;;;;;10.45;54.72;93890.41;5098851;28;20215;-70
2021/12/03 06:17:25;;;;;;;5.25;1.67;;;;;;;10.50;55.57;93870.75;5098765;28;20208;-70
2021/12/03 06:19:52;;;;;;;2.30;2.10;;;;;;;10.60;55.05;93894.88;5098546;28;20191;-70
2021/12/03 06:22:20;;;;;;;3.47;1.92;;;;;;;10.69;55.19;93869.72;5098785;28;20191;-70
2021/12/03 06:24:47;;;;;;;2.53;1.70;;;;;;;10.78;54.53;93872.13;5098993;28;20200;-68
2021/12/03 06:27:14;;;;;;;2.25;1.40;;;;;;;10.83;54.47;93878.09;5098372;28;20187;-70
2021/12/03 06:29:41;;;;;;;3.33;1.70;;;;;;;10.85;54.46;93877.72;5080482;28;20207;-70
2021/12/03 06:32:10;;;;;;;1.67;1.50;;;;;;;10.87;54.90;93883.66;5098298;28;20659;-70
2021/12/03 06:34:37;;;;;;;2.65;1.60;;;;;;;10.91;55.02;93898.25;5080918;28;20211;-70
2021/12/03 06:37:04;;;;;;;2.60;1.80;;;;;;;10.95;54.45;93896.31;5098144;28;20219;-70
2021/12/03 06:39:32;;;;;;;3.00;2.05;;;;;;;10.97;54.45;93898.69;5098541;28;20185;-70
2021/12/03 06:41:59;;;;;;;3.85;1.70;;;;;;;10.98;54.88;93894.75;5080299;28;20192;-70
2021/12/03 06:44:26;;;;;;;2.38;1.70;;;;;;;10.99;54.94;93886.09;5076866;28;20233;-69
2021/12/03 06:46:53;;;;;;;2.38;1.80;;;;;;;11.00;55.17;93898.72;5077218;28;20185;-69
2021/12/03 06:49:21;;;;;;;2.88;1.45;;;;;;;11.01;54.91;93899.50;5076993;28;20196;-70
2021/12/03 06:51:49;;;;;;;1.50;1.40;;;;;;;11.03;54.93;93916.47;5077608;28;20207;-70
2021/12/03 06:54:24;;;;;;;2.40;1.55;;;;;;;11.05;54.40;93914.13;5078167;28;20188;-70
2021/12/03 06:56:52;;;;;;;3.10;1.70;;;;;;;11.11;54.37;93934.66;5076948;28;20265;-70
2021/12/03 06:59:19;;;;;;;1.67;1.33;;;;;;;11.16;54.43;93928.78;5077352;28;20204;-69
2021/12/03 07:01:46;;;;;;;2.45;1.60;;;;;;;11.22;54.21;93935.53;5077840;28;20216;-69
2021/12/03 07:04:13;;;;;;;3.03;1.30;;;;;;;11.25;54.08;93909.91;5077828;28;20200;-70
2021/12/03 07:06:40;;;;;;;3.25;1.85;;;;;;;11.29;54.04;93916.25;5077800;28;20182;-70
2021/12/03 07:09:07;;;;;;;2.65;1.50;;;;;;;11.30;54.46;93912.31;5077116;28;20181;-70
2021/12/03 07:11:34;;;;;;;2.03;1.40;;;;;;;11.29;53.92;93898.88;5076922;28;20193;-70
2021/12/03 07:14:03;;;;;;;2.22;1.60;;;;;;;11.33;53.87;93913.50;5077862;28;20203;-70
2021/12/03 07:16:30;;;;;;;2.85;1.60;;;;;;;11.35;54.70;93907.59;5077555;28;20189;-70
2021/12/03 07:18:57;;;;;;;1.52;1.33;;;;;;;11.36;54.00;93900.88;5077567;28;20614;-69
2021/12/03 07:21:24;;;;;;;2.40;1.48;;;;;;;11.47;53.43;93898.97;5077250;28;20181;-70
2021/12/03 07:23:51;;;;;;;2.58;1.42;;;;;;;11.52;52.85;93895.84;5076581;28;20207;-70
2021/12/03 07:26:18;;;;;;;3.90;1.80;;;;;;;11.61;53.03;93895.50;5076561;28;20291;-70
2021/12/03 07:28:45;;;;;;;3.72;1.50;;;;;;;11.66;52.73;93909.72;5076422;28;20207;-70
2021/12/03 07:31:14;;;;;;;3.50;1.60;;;;;;;11.74;52.09;93908.56;5076640;28;20196;-69
2021/12/03 07:33:41;;;;;;;2.50;1.38;;;;;;;11.84;52.18;93895.22;5077292;28;20197;-70
2021/12/03 07:36:08;;;;;;;2.38;1.50;;;;;;;11.94;52.33;93911.03;5077244;28;20192;-70
2021/12/03 07:38:36;;;;;;;2.45;1.40;;;;;;;12.06;52.19;93898.88;5076255;28;20213;-70
2021/12/03 07:41:03;;;;;;;2.88;1.48;;;;;;;12.16;51.85;93887.00;5077554;28;20211;-70
2021/12/03 07:43:30;;;;;;;2.38;1.55;;;;;;;12.25;51.68;93879.16;5089332;28;20322;-70
2021/12/03 07:45:57;;;;;;;2.38;1.40;;;;;;;12.32;50.91;93942.75;5097349;28;20188;-69
2021/12/03 07:48:25;;;;;;;1.85;1.30;;;;;;;12.42;50.85;93908.03;5096881;28;20600;-70
2021/12/03 07:50:54;;;;;;;2.00;1.50;;;;;;;12.51;51.14;93911.97;5097209;28;20189;-71
2021/12/03 07:53:21;;;;;;;2.65;1.30;;;;;;;12.59;50.65;93914.75;5097163;28;20188;-70
2021/12/03 07:55:49;;;;;;;2.15;1.40;;;;;;;12.66;50.51;93909.22;5079642;28;20219;-71
2021/12/03 07:58:17;;;;;;;1.77;1.50;;;;;;;12.71;49.63;93933.75;5097293;28;20215;-71
2021/12/03 08:00:44;;;;;;;2.15;1.50;;;;;;;12.69;49.55;93936.88;5079410;28;20195;-71
2021/12/03 08:03:11;;;;;;;3.20;1.30;;;;;;;12.65;49.88;93938.84;5097373;28;20184;-70
2021/12/03 08:05:40;;;;;;;2.45;1.63;;;;;;;12.61;50.22;93926.22;5096924;28;20204;-70
2021/12/03 08:08:07;;;;;;;1.80;1.40;;;;;;;12.60;50.18;93925.44;5079229;28;20197;-69
2021/12/03 08:10:35;;;;;;;3.35;1.35;;;;;;;12.61;50.65;93934.50;5096984;28;20191;-70
2021/12/03 08:13:02;;;;;;;2.67;1.40;;;;;;;12.57;51.03;93928.19;5078928;28;20417;-69
2021/12/03 08:15:30;;;;;;;3.97;1.60;;;;;;;12.53;51.02;93920.69;5079378;28;20197;-69
2021/12/03 08:17:57;;;;;;;3.25;1.75;;;;;;;12.53;51.37;93925.41;5096644;28;20208;-69
2021/12/03 08:20:23;;;;;;;4.43;1.48;;;;;;;12.47;50.81;93930.53;5078866;28;20249;-69
2021/12/03 08:22:52;;;;;;;3.38;1.55;;;;;;;12.46;51.42;93931.72;5078405;28;20200;-67
2021/12/03 08:25:19;;;;;;;2.22;1.42;;;;;;;12.45;51.62;93927.34;5078746;28;20204;-67
2021/12/03 08:27:45;;;;;;;3.22;2.20;;;;;;;12.43;51.76;93951.88;5096380;28;20207;-67
2021/12/03 08:30:15;;;;;;;4.05;1.73;;;;;;;12.46;51.54;93944.75;5096168;28;20185;-67
2021/12/03 08:32:43;;;;;;;3.15;1.63;;;;;;;12.45;50.53;93937.63;5096290;28;20276;-67
2021/12/03 08:35:10;;;;;;;2.05;1.25;;;;;;;12.43;50.90;93942.78;5096391;28;20212;-67
2021/12/03 08:37:37;;;;;;;4.03;1.60;;;;;;;12.40;51.21;93943.56;5078738;28;20562;-67
2021/12/03 08:40:06;;;;;;;3.83;1.90;;;;;;;12.38;51.51;93937.63;5096313;28;20284;-67
2021/12/03 08:42:33;;;;;;;2.75;1.60;;;;;;;12.37;51.40;93949.88;5095972;28;20235;-68
2021/12/03 08:45:00;;;;;;;4.35;1.95;;;;;;;12.37;51.53;93928.53;5078023;28;20196;-68
2021/12/03 08:47:27;;;;;;;2.88;1.50;;;;;;;12.36;51.75;93940.00;5095840;28;20628;-68
2021/12/03 08:49:55;;;;;;;2.47;1.95;;;;;;;12.36;52.22;93943.56;5078288;28;20211;-68
2021/12/03 08:52:34;;;;;;;4.07;2.00;;;;;;;12.33;52.40;93938.78;5096058;28;20177;-68
2021/12/03 08:55:01;;;;;;;2.53;1.52;;;;;;;12.35;52.17;93932.91;5095764;28;20216;-69
2021/12/03 08:57:32;;;;;;;5.55;1.67;;;;;;;12.35;52.69;93933.69;5078202;28;20220;-69
2021/12/03 09:00:02;;;;;;;2.17;1.40;;;;;;;12.40;52.23;93943.56;5078494;28;20294;-69
2021/12/03 09:02:28;;;;;;;1.80;1.70;;;;;;;12.42;51.91;93961.34;5096159;28;20271;-70
2021/12/03 09:04:55;;;;;;;3.53;1.67;;;;;;;12.42;50.99;93952.25;5095907;28;20195;-69
2021/12/03 09:07:22;;;;;;;3.00;1.50;;;;;;;12.46;50.67;93964.13;5078484;28;20605;-70
2021/12/03 09:09:49;;;;;;;2.53;1.40;;;;;;;12.49;50.87;93949.47;5096071;28;20184;-70
2021/12/03 09:12:16;;;;;;;3.10;1.70;;;;;;;12.53;51.19;93973.22;5078385;28;20202;-70
2021/12/03 09:14:47;;;;;;;2.90;1.65;;;;;;;12.55;51.27;93974.78;5096083;28;20508;-69
2021/12/03 09:17:30;;;;;;;4.70;1.80;;;;;;;12.52;51.24;93959.78;5095567;28;20257;-69
2021/12/03 09:19:58;;;;;;;3.17;1.60;;;;;;;12.49;51.80;93953.06;5095762;28;20184;-69
2021/12/03 09:22:36;;;;;;;3.22;1.60;;;;;;;12.49;51.32;93966.06;5095549;28;20180;-70
2021/12/03 09:25:03;;;;;;;3.10;1.75;;;;;;;12.48;50.80;93951.47;5095739;28;20324;-71
2021/12/03 09:27:29;;;;;;;4.53;1.70;;;;;;;12.49;50.93;93952.25;5078476;28;20187;-71
2021/12/03 09:29:58;;;;;;;2.70;1.42;;;;;;;12.49;50.72;93919.06;5095493;28;20195;-68
2021/12/03 09:32:28;;;;;;;3.30;1.65;;;;;;;12.53;50.89;93937.28;5095180;28;20195;-69
2021/12/03 09:34:55;;;;;;;2.70;1.85;;;;;;;12.56;50.75;93943.19;5095526;28;20191;-68
2021/12/03 09:37:22;;;;;;;5.78;2.15;;;;;;;12.56;50.65;93954.25;5078047;28;20265;-68
2021/12/03 09:39:49;;;;;;;3.22;1.92;;;;;;;12.58;50.62;93947.16;5077809;28;20534;-69
2021/12/03 09:42:20;;;;;;;3.38;1.80;;;;;;;12.60;50.85;93938.44;5095131;28;20195;-69
2021/12/03 09:44:49;;;;;;;3.05;1.83;;;;;;;12.57;51.20;93961.38;5077532;28;20253;-68
2021/12/03 09:47:18;;;;;;;4.00;2.00;;;;;;;12.53;50.66;93930.94;5077608;28;20196;-69
2021/12/03 09:49:49;;;;;;;5.60;2.17;;;;;;;12.50;51.04;93937.25;5077737;28;20202;-68
2021/12/03 09:52:24;;;;;;;4.10;1.60;;;;;;;12.50;50.15;93948.31;5077573;28;20188;-69
2021/12/03 09:54:54;;;;;;;3.45;1.75;;;;;;;12.55;50.24;93955.44;5077324;28;20503;-69
2021/12/03 09:57:30;;;;;;;3.42;1.70;;;;;;;12.59;50.62;93954.25;5077207;28;20204;-68
2021/12/03 10:00:12;;;;;;;5.20;1.77;;;;;;;12.64;50.21;93944.78;5094722;28;20535;-68
2021/12/03 10:14:35;;;;;;;2.95;1.50;;;;;;;12.76;48.74;93930.56;5066090;28;20261;-69
2021/12/03 10:20:09;;;;;;;3.55;1.80;;;;;;;12.79;48.23;93929.00;5078958;28;20223;-69
2021/12/03 10:23:13;;;;;;;5.10;1.60;;;;;;;12.84;48.79;93931.38;5095082;28;20212;-69
2021/12/03 10:34:12;;;;;;;2.17;1.30;;;;;;;13.01;48.72;93928.59;5077369;28;20180;-68
2021/12/03 10:36:54;;;;;;;1.63;1.50;;;;;;;13.09;48.13;93925.81;5076669;28;20237;-69
2021/12/03 10:39:45;;;;;;;4.55;1.70;;;;;;;13.17;47.91;93935.69;5076594;28;20306;-68
2021/12/03 10:42:24;;;;;;;2.95;1.67;;;;;;;13.26;47.54;93911.22;5094555;28;20195;-68
2021/12/03 10:48:00;;;;;;;5.60;1.80;;;;;;;13.34;47.52;93914.75;5076539;28;20196;-69
2021/12/03 10:53:39;;;;;;;5.65;2.50;;;;;;;13.52;48.12;93942.41;5098572;28;20192;-68
2021/12/03 11:08:05;;;;;;;5.53;2.42;;;;;;;13.43;47.46;93901.25;5080920;28;20342;-69
2021/12/03 11:39:07;;;;;;;2.03;1.35;;;;;;;13.53;47.11;93913.53;5079605;28;20216;-68
2021/12/03 12:25:07;;;;;;;2.47;1.58;;;;;;;13.45;46.21;93894.16;5079012;28;20223;-68
2021/12/03 12:45:08;;;;;;;4.10;1.90;;;;;;;13.24;46.15;93864.53;5095388;28;20609;-68
2021/12/03 13:13:42;;;;;;;3.55;1.40;;;;;;;13.24;47.04;93897.75;5042637;28;20235;-67
2021/12/03 14:01:42;;;;;;;2.35;1.13;;;;;;;13.15;45.79;93922.25;5069226;28;20208;-69
2021/12/03 14:37:54;;;;;;;2.85;1.77;;;;;;;13.15;45.94;93949.16;5081503;28;20196;-68
2021/12/03 14:49:08;;;;;;;2.88;1.65;;;;;;;13.14;45.76;93948.34;5077065;28;20208;-67
2021/12/03 14:51:47;;;;;;;3.95;1.85;;;;;;;13.13;46.43;93957.06;5080739;28;20253;-67
2021/12/03 14:54:40;;;;;;;3.17;1.85;;;;;;;13.10;46.32;93946.78;5080692;28;20207;-66
2021/12/03 14:57:09;;;;;;;4.95;2.08;;;;;;;13.07;46.24;93953.09;5097876;28;20552;-70
2021/12/03 14:59:39;;;;;;;5.75;2.00;;;;;;;13.06;46.42;93982.75;5080285;28;20520;-70
2021/12/03 15:02:14;;;;;;;3.38;1.73;;;;;;;13.04;46.95;93943.63;5097887;28;20215;-69
2021/12/03 15:05:06;;;;;;;5.18;2.15;;;;;;;13.00;47.33;93953.91;5080501;28;20220;-68
2021/12/03 15:07:42;;;;;;;4.20;1.70;;;;;;;12.97;47.96;93955.47;5080224;28;20204;-68
2021/12/03 15:10:14;;;;;;;2.67;1.73;;;;;;;12.93;47.90;93965.78;5098229;28;20238;-68
2021/12/03 15:24:27;;;;;;;3.40;1.98;;;;;;;12.84;48.25;93975.63;5097774;28;20209;-69
2021/12/03 15:30:04;;;;;;;4.30;2.00;;;;;;;12.82;48.61;93978.00;5024034;28;20199;-69
2021/12/03 15:32:36;;;;;;;3.10;1.88;;;;;;;12.83;48.47;93987.91;5097550;28;20189;-69
2021/12/03 15:35:09;;;;;;;3.13;1.85;;;;;;;12.79;48.88;93984.34;5097454;28;20272;-69
2021/12/03 15:57:22;;;;;;;4.32;2.60;;;;;;;12.75;51.23;94029.38;5079343;28;20238;-69
2021/12/03 16:05:41;;;;;;;4.25;3.22;;;;;;;11.75;53.84;94067.59;5079251;28;20283;-69
2021/12/03 16:08:15;;;;;;;4.75;3.10;;;;;;;11.21;55.36;94082.19;5079031;28;20200;-69
2021/12/03 16:10:49;;;;;;;5.43;3.40;;;;;;;10.90;55.59;94076.00;5078626;28;20230;-69
2021/12/03 16:18:56;;;;;;;4.45;3.42;;;;;;;10.16;57.69;94087.69;5053152;28;20292;-71
2021/12/03 16:25:02;;;;;;;3.75;3.33;;;;;;;10.02;58.08;94113.13;5112890;27;20569;-70
2021/12/03 16:44:01;;;;;;;2.80;2.00;;;;;;;9.17;59.40;94123.59;5112718;28;20195;-69
2021/12/03 16:46:36;;;;;;;2.60;1.90;;;;;;;9.18;59.64;94118.88;5112331;28;20592;-70
2021/12/03 16:51:49;;;;;;;2.78;2.05;;;;;;;9.05;60.30;94138.31;5112499;28;20253;-70
2021/12/03 16:54:21;;;;;;;2.38;2.10;;;;;;;8.98;60.44;94138.19;5112218;28;20192;-69
2021/12/03 16:56:50;;;;;;;2.22;2.03;;;;;;;8.92;60.64;94139.63;5111377;28;20231;-69